createdAt,value
2022-08-21T00:01:54.937Z,5.00
2022-08-21T00:04:25.991Z,5.10
2022-08-21T00:06:59.754Z,5.60
2022-08-21T00:09:28.585Z,5.10
2022-08-21T00:11:56.641Z,4.90
2022-08-21T00:14:24.712Z,5.40
2022-08-21T00:16:52.729Z,4.90
2022-08-21T00:19:26.114Z,4.40
2022-08-21T00:21:55.564Z,5.10
2022-08-21T00:24:25.235Z,4.70
2022-08-21T00:26:53.676Z,5.00
2022-08-21T00:29:21.987Z,5.20
2022-08-21T00:31:50.189Z,4.40
2022-08-21T00:34:18.422Z,4.70
2022-08-21T00:36:46.492Z,5.50
2022-08-21T00:39:14.632Z,5.00
2022-08-21T00:41:43.428Z,5.00
2022-08-21T00:44:14.465Z,5.50
2022-08-21T00:46:44.682Z,5.20
2022-08-21T00:49:14.270Z,4.70
2022-08-21T00:51:53.181Z,4.50
2022-08-21T00:54:25.915Z,4.30
2022-08-21T00:56:59.643Z,4.60
2022-08-21T00:59:33.240Z,4.60
2022-08-21T01:02:01.939Z,4.90
2022-08-21T01:04:30.078Z,4.80
2022-08-21T01:06:58.313Z,4.50
2022-08-21T01:09:26.471Z,4.50
2022-08-21T01:11:55.018Z,4.80
2022-08-21T01:14:23.883Z,5.90
2022-08-21T01:16:54.881Z,4.90
2022-08-21T01:19:23.568Z,4.70
2022-08-21T01:21:52.629Z,4.20
2022-08-21T01:24:21.244Z,4.60
2022-08-21T01:26:51.948Z,4.80
2022-08-21T01:29:51.858Z,4.80
2022-08-21T01:32:21.424Z,4.70
2022-08-21T01:34:52.127Z,5.00
2022-08-21T01:37:22.467Z,4.50
2022-08-21T01:39:50.947Z,4.40
2022-08-21T01:42:19.067Z,4.70
2022-08-21T01:44:47.079Z,5.20
2022-08-21T01:47:17.626Z,5.20
2022-08-21T01:49:47.338Z,5.00
2022-08-21T01:52:15.451Z,4.60
2022-08-21T01:54:43.830Z,4.90
2022-08-21T01:57:14.105Z,5.30
2022-08-21T01:59:42.672Z,4.80
2022-08-21T02:02:11.190Z,4.80
2022-08-21T02:04:39.248Z,5.20
2022-08-21T02:07:08.506Z,5.40
2022-08-21T02:09:40.210Z,5.40
2022-08-21T02:12:08.662Z,4.60
2022-08-21T02:14:37.167Z,5.10
2022-08-21T02:17:09.546Z,5.00
2022-08-21T02:19:40.194Z,4.50
2022-08-21T02:22:11.720Z,5.00
2022-08-21T02:24:55.127Z,4.90
2022-08-21T02:27:27.209Z,4.20
2022-08-21T02:29:58.971Z,4.70
2022-08-21T02:32:27.581Z,6.00
2022-08-21T02:34:55.727Z,5.10
2022-08-21T02:37:25.523Z,4.30
2022-08-21T02:39:53.719Z,4.40
2022-08-21T02:42:21.854Z,4.70
2022-08-21T02:44:49.863Z,4.60
2022-08-21T02:47:18.147Z,4.50
2022-08-21T02:49:46.179Z,3.80
2022-08-21T02:52:15.547Z,3.90
2022-08-21T02:54:43.789Z,4.40
2022-08-21T02:57:11.965Z,4.80
2022-08-21T02:59:41.816Z,3.80
2022-08-21T03:02:09.971Z,4.40
2022-08-21T03:04:39.959Z,4.40
2022-08-21T03:07:11.254Z,4.60
2022-08-21T03:09:39.610Z,4.90
2022-08-21T03:12:24.719Z,4.70
2022-08-21T03:14:54.875Z,5.10
2022-08-21T03:17:29.483Z,4.70
2022-08-21T03:19:58.384Z,4.50
2022-08-21T03:22:27.186Z,4.20
2022-08-21T03:24:55.464Z,4.50
2022-08-21T03:27:25.656Z,4.90
2022-08-21T03:29:55.505Z,4.50
2022-08-21T03:32:23.522Z,5.00
2022-08-21T03:34:51.548Z,4.70
2022-08-21T03:37:19.695Z,5.50
2022-08-21T03:39:48.094Z,4.70
2022-08-21T03:42:16.357Z,4.40
2022-08-21T03:44:44.389Z,4.80
2022-08-21T03:47:12.539Z,4.40
2022-08-21T03:49:40.633Z,4.90
2022-08-21T03:52:08.910Z,4.10
2022-08-21T03:54:36.883Z,4.40
2022-08-21T03:57:04.978Z,4.10
2022-08-21T03:59:32.989Z,4.50
2022-08-21T04:02:03.587Z,4.80
2022-08-21T04:04:32.326Z,4.20
2022-08-21T04:07:00.723Z,4.10
2022-08-21T04:09:28.850Z,4.50
2022-08-21T04:11:58.000Z,4.50
2022-08-21T04:14:26.072Z,4.30
2022-08-21T04:16:54.228Z,4.10
2022-08-21T04:19:22.346Z,4.50
2022-08-21T04:21:50.873Z,4.30
2022-08-21T04:24:20.639Z,4.40
2022-08-21T04:26:48.760Z,4.80
2022-08-21T04:29:16.972Z,5.00
2022-08-21T04:31:44.903Z,4.80
2022-08-21T04:34:13.566Z,3.70
2022-08-21T04:36:41.648Z,4.10
2022-08-21T04:39:10.186Z,4.70
2022-08-21T04:41:38.897Z,4.50
2022-08-21T04:44:07.732Z,3.70
2022-08-21T04:46:35.973Z,3.90
2022-08-21T04:49:03.909Z,3.60
2022-08-21T04:51:38.755Z,3.80
2022-08-21T04:54:25.053Z,3.80
2022-08-21T04:56:57.382Z,3.90
2022-08-21T04:59:29.378Z,4.20
2022-08-21T05:01:58.687Z,3.70
2022-08-21T05:04:31.385Z,3.90
2022-08-21T05:07:03.370Z,3.80
2022-08-21T05:09:32.216Z,4.10
2022-08-21T05:12:03.721Z,3.40
2022-08-21T05:14:31.852Z,3.40
2022-08-21T05:17:00.508Z,4.30
2022-08-21T05:19:28.672Z,3.80
2022-08-21T05:21:56.802Z,3.70
2022-08-21T05:24:25.441Z,4.20
2022-08-21T05:26:53.974Z,3.60
2022-08-21T05:29:22.898Z,3.20
2022-08-21T05:31:51.204Z,3.50
2022-08-21T05:34:22.707Z,3.60
2022-08-21T05:36:51.308Z,3.40
2022-08-21T05:39:19.412Z,3.70
2022-08-21T05:41:48.897Z,3.30
2022-08-21T05:44:16.966Z,2.90
2022-08-21T05:46:45.011Z,3.20
2022-08-21T05:49:13.456Z,3.80
2022-08-21T05:51:42.807Z,3.70
2022-08-21T05:54:12.329Z,3.60
2022-08-21T05:56:40.283Z,3.50
2022-08-21T05:59:08.954Z,3.60
2022-08-21T06:01:37.377Z,3.50
2022-08-21T06:04:06.445Z,3.70
2022-08-21T06:06:36.162Z,4.30
2022-08-21T06:09:05.967Z,3.60
2022-08-21T06:11:35.261Z,4.20
2022-08-21T06:14:03.568Z,4.30
2022-08-21T06:16:31.691Z,4.20
2022-08-21T06:19:02.773Z,4.10
2022-08-21T06:21:31.764Z,4.60
2022-08-21T06:23:59.826Z,4.90
2022-08-21T06:26:29.293Z,4.20
2022-08-21T06:28:57.766Z,4.90
2022-08-21T06:31:27.735Z,4.60
2022-08-21T06:33:56.471Z,4.30
2022-08-21T06:36:25.016Z,4.70
2022-08-21T06:38:53.076Z,4.00
2022-08-21T06:41:23.964Z,5.10
2022-08-21T06:43:56.452Z,4.80
2022-08-21T06:46:30.176Z,4.20
2022-08-21T06:48:59.645Z,4.60
2022-08-21T06:51:28.478Z,4.20
2022-08-21T06:53:57.005Z,4.50
2022-08-21T06:56:27.637Z,4.40
2022-08-21T06:58:55.696Z,4.70
2022-08-21T07:01:26.327Z,4.70
2022-08-21T07:03:55.174Z,4.30
2022-08-21T07:06:23.273Z,4.80
2022-08-21T07:08:51.398Z,4.30
2022-08-21T07:11:22.469Z,4.30
2022-08-21T07:13:53.399Z,4.70
2022-08-21T07:16:22.663Z,4.50
2022-08-21T07:18:50.819Z,4.70
2022-08-21T07:21:21.648Z,5.10
2022-08-21T07:23:54.288Z,4.40
2022-08-21T07:26:24.869Z,4.70
2022-08-21T07:28:54.277Z,4.90
2022-08-21T07:31:24.710Z,4.60
2022-08-21T07:33:53.467Z,4.90
2022-08-21T07:36:21.608Z,4.70
2022-08-21T07:38:52.771Z,4.70
2022-08-21T07:41:24.826Z,5.00
2022-08-21T07:43:53.711Z,5.00
2022-08-21T07:46:22.091Z,4.50
2022-08-21T07:48:50.270Z,4.50
2022-08-21T07:51:23.205Z,4.40
2022-08-21T07:53:52.928Z,4.50
2022-08-21T07:56:21.850Z,4.30
2022-08-21T07:58:50.847Z,4.10
2022-08-21T08:01:19.355Z,4.50
2022-08-21T08:03:47.680Z,4.70
2022-08-21T08:06:17.852Z,4.80
2022-08-21T08:08:46.711Z,4.80
2022-08-21T08:11:17.591Z,5.40
2022-08-21T08:13:50.911Z,5.20
2022-08-21T08:16:20.101Z,4.70
2022-08-21T08:18:48.329Z,5.40
2022-08-21T08:21:17.145Z,5.20
2022-08-21T08:23:46.300Z,5.80
2022-08-21T08:26:16.791Z,5.70
2022-08-21T08:28:45.253Z,5.30
2022-08-21T08:31:13.450Z,5.60
2022-08-21T08:33:41.746Z,5.50
2022-08-21T08:36:19.770Z,5.10
2022-08-21T08:38:49.269Z,5.60
2022-08-21T08:41:23.853Z,6.00
2022-08-21T08:44:08.464Z,6.30
2022-08-21T08:46:42.235Z,6.40
2022-08-21T08:49:41.477Z,5.30
2022-08-21T08:52:34.381Z,5.80
2022-08-21T08:55:04.680Z,5.60
2022-08-21T08:57:34.618Z,5.50
2022-08-21T09:00:09.720Z,4.90
2022-08-21T09:02:42.994Z,4.70
2022-08-21T09:05:28.694Z,5.10
2022-08-21T09:08:16.621Z,5.30
2022-08-21T09:11:04.309Z,3.90
2022-08-21T09:13:51.084Z,3.90
2022-08-21T09:17:13.431Z,3.80
2022-08-21T09:19:53.419Z,4.00
2022-08-21T09:22:52.982Z,3.80
2022-08-21T09:25:20.979Z,3.90
2022-08-21T09:27:53.016Z,3.90
2022-08-21T09:30:27.873Z,3.90
2022-08-21T09:32:56.057Z,4.00
2022-08-21T09:35:25.938Z,4.40
2022-08-21T09:38:06.767Z,4.40
2022-08-21T09:40:48.006Z,4.20
2022-08-21T09:43:16.087Z,3.90
2022-08-21T09:45:46.306Z,3.80
2022-08-21T09:48:20.894Z,4.50
2022-08-21T09:50:50.589Z,3.90
2022-08-21T09:53:31.487Z,4.00
2022-08-21T09:56:25.301Z,3.80
2022-08-21T09:58:53.426Z,4.10
2022-08-21T10:01:27.054Z,5.40
2022-08-21T10:04:30.435Z,3.60
2022-08-21T10:07:13.793Z,4.00
2022-08-21T10:09:43.074Z,3.80
2022-08-21T10:12:41.051Z,4.30
2022-08-21T10:15:47.497Z,4.20
2022-08-21T10:18:36.999Z,3.70
2022-08-21T10:21:11.772Z,4.20
2022-08-21T10:23:51.117Z,3.90
2022-08-21T10:26:32.969Z,4.20
2022-08-21T10:29:09.822Z,3.70
2022-08-21T10:32:03.972Z,3.90
2022-08-21T10:34:47.348Z,3.50
2022-08-21T10:37:32.962Z,4.30
2022-08-21T10:40:16.848Z,4.00
2022-08-21T10:42:47.926Z,4.70
2022-08-21T10:45:16.021Z,4.00
2022-08-21T10:47:58.047Z,3.80
2022-08-21T10:50:32.394Z,4.00
2022-08-21T10:53:00.665Z,3.90
2022-08-21T10:55:52.704Z,4.00
2022-08-21T10:58:32.955Z,4.40
2022-08-21T11:01:24.301Z,5.30
2022-08-21T11:04:02.373Z,3.90
2022-08-21T11:06:36.064Z,4.10
2022-08-21T11:09:20.506Z,3.50
2022-08-21T11:12:11.553Z,3.80
2022-08-21T11:14:52.867Z,4.00
2022-08-21T11:17:32.307Z,4.30
2022-08-21T11:20:14.914Z,4.20
2022-08-21T11:22:55.514Z,4.10
2022-08-21T11:25:42.693Z,5.90
2022-08-21T11:28:29.427Z,4.70
2022-08-21T11:31:16.364Z,4.00
2022-08-21T11:34:12.317Z,4.20
2022-08-21T11:37:00.852Z,4.10
2022-08-21T11:39:51.239Z,3.80
2022-08-21T11:42:56.463Z,4.00
2022-08-21T11:45:30.543Z,4.00
2022-08-21T11:48:40.302Z,3.40
2022-08-21T11:51:21.943Z,3.60
2022-08-21T11:53:59.398Z,3.30
2022-08-21T11:56:43.344Z,3.90
2022-08-21T11:59:21.853Z,3.50
2022-08-21T12:01:52.903Z,10.00
2022-08-21T12:04:33.693Z,5.10
2022-08-21T12:07:29.458Z,5.60
2022-08-21T12:09:59.748Z,5.20
2022-08-21T12:12:37.035Z,4.50
2022-08-21T12:15:23.526Z,4.50
2022-08-21T12:18:05.017Z,5.20
2022-08-21T12:20:39.443Z,3.70
2022-08-21T12:23:26.639Z,3.90
2022-08-21T12:26:11.984Z,4.20
2022-08-21T12:28:40.929Z,3.70
2022-08-21T12:31:29.267Z,4.10
2022-08-21T12:34:01.151Z,3.70
2022-08-21T12:36:47.951Z,4.20
2022-08-21T12:39:23.016Z,3.40
2022-08-21T12:42:01.834Z,3.60
2022-08-21T12:44:38.815Z,3.80
2022-08-21T12:47:17.223Z,4.10
2022-08-21T12:50:34.891Z,3.20
2022-08-21T12:53:34.089Z,3.90
2022-08-21T12:56:10.873Z,3.90
2022-08-21T12:58:45.940Z,4.30
2022-08-21T13:01:45.190Z,3.90
2022-08-21T13:04:18.592Z,3.70
2022-08-21T13:06:52.105Z,4.00
2022-08-21T13:09:27.187Z,4.10
2022-08-21T13:11:56.892Z,3.80
2022-08-21T13:14:48.360Z,3.60
2022-08-21T13:17:23.502Z,4.20
2022-08-21T13:20:03.766Z,3.70
2022-08-21T13:22:33.940Z,4.30
2022-08-21T13:25:07.040Z,3.60
2022-08-21T13:27:35.616Z,4.20
2022-08-21T13:30:08.072Z,3.80
2022-08-21T13:32:41.783Z,4.20
2022-08-21T13:35:26.818Z,3.70
2022-08-21T13:37:56.607Z,4.00
2022-08-21T13:40:52.163Z,4.30
2022-08-21T13:43:26.473Z,3.90
2022-08-21T13:45:55.819Z,3.80
2022-08-21T13:48:31.022Z,4.00
2022-08-21T13:50:59.668Z,4.40
2022-08-21T13:53:57.365Z,4.20
2022-08-21T13:56:31.386Z,3.60
2022-08-21T13:59:01.750Z,4.30
2022-08-21T14:01:54.369Z,3.70
2022-08-21T14:04:32.782Z,4.00
2022-08-21T14:07:02.112Z,3.80
2022-08-21T14:09:43.961Z,4.00
2022-08-21T14:12:33.345Z,4.10
2022-08-21T14:15:06.378Z,3.90
2022-08-21T14:17:38.594Z,3.80
2022-08-21T14:20:08.847Z,4.00
2022-08-21T14:22:48.388Z,3.80
2022-08-21T14:25:31.937Z,3.30
2022-08-21T14:28:02.886Z,3.30
2022-08-21T14:30:41.333Z,3.70
2022-08-21T14:33:15.202Z,4.20
2022-08-21T14:35:44.012Z,4.20
2022-08-21T14:38:21.425Z,4.40
2022-08-21T14:40:53.313Z,4.60
2022-08-21T14:43:22.013Z,4.00
2022-08-21T14:45:50.748Z,4.30
2022-08-21T14:48:18.849Z,4.50
2022-08-21T14:50:48.187Z,4.00
2022-08-21T14:53:16.278Z,3.70
2022-08-21T14:56:02.983Z,4.40
2022-08-21T14:58:31.036Z,4.00
2022-08-21T15:01:00.324Z,4.40
2022-08-21T15:03:28.544Z,3.80
2022-08-21T15:05:56.676Z,3.90
2022-08-21T15:08:24.899Z,4.20
2022-08-21T15:11:11.163Z,4.10
2022-08-21T15:13:41.062Z,3.90
2022-08-21T15:16:11.838Z,3.60
2022-08-21T15:18:41.186Z,4.10
2022-08-21T15:21:09.575Z,4.20
2022-08-21T15:23:43.666Z,3.40
2022-08-21T15:26:12.511Z,3.70
2022-08-21T15:28:42.038Z,4.10
2022-08-21T15:31:10.025Z,4.40
2022-08-21T15:33:38.080Z,3.90
2022-08-21T15:36:06.218Z,4.30
2022-08-21T15:38:34.212Z,4.00
2022-08-21T15:41:04.991Z,3.80
2022-08-21T15:43:46.575Z,4.40
2022-08-21T15:46:16.835Z,4.10
2022-08-21T15:48:47.312Z,3.60
2022-08-21T15:51:17.551Z,4.40
2022-08-21T15:53:47.649Z,4.40
2022-08-21T15:56:26.656Z,4.40
2022-08-21T15:59:02.276Z,4.00
2022-08-21T16:01:39.564Z,4.20
2022-08-21T16:04:19.956Z,4.70
2022-08-21T16:06:53.217Z,5.40
2022-08-21T16:09:24.187Z,4.90
2022-08-21T16:11:52.587Z,5.30
2022-08-21T16:14:20.893Z,4.40
2022-08-21T16:16:48.934Z,4.80
2022-08-21T16:19:17.242Z,4.60
2022-08-21T16:21:45.581Z,4.40
2022-08-21T16:24:13.997Z,4.10
2022-08-21T16:26:42.118Z,4.30
2022-08-21T16:29:11.558Z,4.50
2022-08-21T16:31:40.522Z,5.00
2022-08-21T16:34:16.624Z,4.90
2022-08-21T16:36:45.005Z,4.40
2022-08-21T16:39:13.489Z,5.20
2022-08-21T16:41:41.712Z,4.10
2022-08-21T16:44:11.189Z,4.60
2022-08-21T16:46:41.777Z,4.70
2022-08-21T16:49:10.437Z,4.90
2022-08-21T16:51:38.801Z,4.90
2022-08-21T16:54:06.980Z,4.70
2022-08-21T16:56:39.493Z,4.60
2022-08-21T16:59:08.458Z,4.50
2022-08-21T17:01:37.423Z,4.50
2022-08-21T17:04:06.161Z,4.40
2022-08-21T17:06:34.579Z,4.90
2022-08-21T17:09:02.743Z,4.80
2022-08-21T17:11:45.414Z,5.70
2022-08-21T17:14:23.623Z,5.20
2022-08-21T17:16:55.301Z,6.10
2022-08-21T17:19:24.085Z,5.10
2022-08-21T17:21:52.228Z,4.50
2022-08-21T17:24:20.972Z,4.60
2022-08-21T17:26:49.825Z,5.10
2022-08-21T17:29:24.995Z,4.60
2022-08-21T17:31:53.333Z,5.60
2022-08-21T17:34:22.161Z,5.00
2022-08-21T17:36:50.224Z,4.70
2022-08-21T17:39:22.146Z,4.90
2022-08-21T17:41:58.081Z,4.40
2022-08-21T17:44:26.635Z,4.60
2022-08-21T17:46:54.973Z,4.50
2022-08-21T17:49:23.255Z,5.10
2022-08-21T17:51:51.496Z,4.80
2022-08-21T17:54:19.588Z,5.10
2022-08-21T17:56:48.317Z,4.60
2022-08-21T17:59:16.388Z,4.40
2022-08-21T18:01:47.025Z,4.90
2022-08-21T18:04:16.372Z,4.90
2022-08-21T18:06:45.593Z,6.00
2022-08-21T18:09:14.050Z,5.70
2022-08-21T18:11:43.851Z,5.70
2022-08-21T18:14:13.410Z,4.80
2022-08-21T18:16:42.565Z,4.50
2022-08-21T18:19:15.631Z,5.40
2022-08-21T18:21:44.540Z,4.90
2022-08-21T18:24:13.128Z,5.20
2022-08-21T18:26:42.583Z,5.10
2022-08-21T18:29:14.560Z,4.60
2022-08-21T18:31:46.530Z,4.30
2022-08-21T18:34:25.987Z,5.90
2022-08-21T18:36:54.658Z,5.90
2022-08-21T18:39:39.516Z,5.70
2022-08-21T18:42:16.903Z,5.30
2022-08-21T18:44:48.270Z,5.30
2022-08-21T18:47:29.039Z,4.90
2022-08-21T18:49:57.150Z,5.30
2022-08-21T18:52:28.290Z,5.50
2022-08-21T18:54:57.029Z,5.20
2022-08-21T18:57:29.548Z,4.90
2022-08-21T18:59:57.801Z,5.70
2022-08-21T19:02:26.957Z,4.90
2022-08-21T19:04:55.009Z,5.70
2022-08-21T19:07:23.353Z,6.10
2022-08-21T19:10:24.308Z,6.40
2022-08-21T19:12:44.406Z,6.60
2022-08-21T19:15:16.781Z,5.80
2022-08-21T19:17:50.758Z,5.70
2022-08-21T19:20:27.363Z,6.50
2022-08-21T19:22:56.282Z,6.30
2022-08-21T19:25:33.446Z,6.50
2022-08-21T19:28:11.126Z,6.20
2022-08-21T19:30:47.920Z,6.30
2022-08-21T19:33:24.062Z,5.80
2022-08-21T19:35:53.297Z,6.70
2022-08-21T19:38:23.141Z,5.50
2022-08-21T19:40:52.556Z,5.30
2022-08-21T19:43:23.229Z,5.60
2022-08-21T19:45:55.110Z,6.50
2022-08-21T19:48:25.294Z,5.50
2022-08-21T19:50:54.193Z,6.00
2022-08-21T19:53:22.368Z,5.80
2022-08-21T19:55:50.880Z,5.50
2022-08-21T19:58:39.958Z,6.60
2022-08-21T20:01:16.400Z,6.00
2022-08-21T20:03:53.797Z,5.40
2022-08-21T20:06:24.138Z,5.90
2022-08-21T20:08:55.257Z,6.70
2022-08-21T20:11:34.820Z,6.70
2022-08-21T20:14:02.852Z,5.60
2022-08-21T20:16:31.395Z,5.60
2022-08-21T20:19:00.342Z,5.10
2022-08-21T20:21:28.499Z,5.60
2022-08-21T20:23:57.681Z,6.10
2022-08-21T20:26:26.896Z,6.00
2022-08-21T20:28:56.054Z,6.20
2022-08-21T20:31:25.448Z,6.00
2022-08-21T20:33:56.028Z,5.40
2022-08-21T20:36:24.361Z,6.60
2022-08-21T20:38:53.109Z,6.10
2022-08-21T20:44:14.503Z,6.20
2022-08-21T20:46:43.482Z,6.70
2022-08-21T20:49:17.611Z,6.70
2022-08-21T20:51:50.931Z,6.90
2022-08-21T20:54:39.715Z,6.30
2022-08-21T20:57:32.420Z,6.60
2022-08-21T21:00:15.731Z,5.90
2022-08-21T21:03:11.061Z,6.10
2022-08-21T21:05:51.964Z,5.90
2022-08-21T21:08:29.404Z,5.80
2022-08-21T21:11:07.659Z,5.60
2022-08-21T21:13:46.136Z,5.60
2022-08-21T21:16:20.069Z,6.10
2022-08-21T21:22:25.638Z,6.80
2022-08-21T21:25:21.549Z,6.40
2022-08-21T21:28:13.130Z,6.80
2022-08-21T21:30:46.546Z,6.30
2022-08-21T21:33:16.740Z,5.80
2022-08-21T21:35:49.669Z,6.40
2022-08-21T21:38:26.174Z,6.60
2022-08-21T21:41:22.046Z,5.80
2022-08-21T21:44:26.840Z,6.20
2022-08-21T21:47:05.288Z,6.10
2022-08-21T21:49:42.597Z,5.90
2022-08-21T21:52:33.122Z,6.50
2022-08-21T21:55:46.746Z,6.50
2022-08-21T21:59:13.489Z,6.40
2022-08-21T22:02:04.708Z,6.20
2022-08-21T22:04:55.572Z,6.30
2022-08-21T22:07:57.972Z,6.10
2022-08-21T22:10:42.898Z,6.30
2022-08-21T22:13:26.520Z,8.00
2022-08-21T22:15:56.368Z,8.00
2022-08-21T22:18:29.469Z,7.60
2022-08-21T22:21:09.969Z,8.20
2022-08-21T22:23:43.895Z,8.10
2022-08-21T22:26:25.963Z,8.30
2022-08-21T22:28:55.417Z,8.20
2022-08-21T22:31:29.892Z,8.50
2022-08-21T22:34:07.202Z,7.80
2022-08-21T22:36:56.569Z,7.70
2022-08-21T22:39:37.825Z,7.30
2022-08-21T22:42:31.136Z,7.70
2022-08-21T22:45:04.679Z,8.70
2022-08-21T22:47:39.033Z,7.60
2022-08-21T22:50:26.258Z,7.40
2022-08-21T22:53:00.481Z,6.40
2022-08-21T22:55:45.977Z,6.40
2022-08-21T22:58:22.821Z,6.80
2022-08-21T23:00:54.026Z,7.30
2022-08-21T23:06:44.100Z,6.20
2022-08-21T23:09:21.760Z,6.70
2022-08-21T23:11:50.768Z,7.00
2022-08-21T23:14:19.739Z,5.90
2022-08-21T23:17:14.367Z,6.00
2022-08-21T23:20:05.521Z,6.60
2022-08-21T23:23:01.316Z,6.30
2022-08-21T23:25:56.656Z,6.30
2022-08-21T23:28:24.569Z,6.10
2022-08-21T23:31:10.675Z,6.60
2022-08-21T23:34:15.933Z,5.90
2022-08-21T23:37:48.407Z,6.70
2022-08-21T23:40:58.982Z,5.80
2022-08-21T23:43:41.917Z,6.60
2022-08-21T23:46:46.197Z,6.20
2022-08-21T23:49:29.192Z,5.70
2022-08-21T23:54:51.708Z,6.10
2022-08-21T23:57:38.107Z,6.00
